sensor_id;sensor_type;location;lat;lon;timestamp;pressure;altitude;pressure_sealevel;temperature;humidity
13013;BME280;22580;57.670;12.006;2023-04-28T00:01:17;101354.03;;;15.27;60.23
13013;BME280;22580;57.670;12.006;2023-04-28T00:03:44;101312.56;;;14.96;60.15
13013;BME280;22580;57.670;12.006;2023-04-28T00:06:11;101344.75;;;15.08;60.61
13013;BME280;22580;57.670;12.006;2023-04-28T00:08:38;101356.50;;;15.07;60.72
13013;BME280;22580;57.670;12.006;2023-04-28T00:11:09;101357.22;;;15.09;60.51
13013;BME280;22580;57.670;12.006;2023-04-28T00:13:36;101355.63;;;14.85;60.92
13013;BME280;22580;57.670;12.006;2023-04-28T00:16:04;101365.19;;;15.11;60.89
13013;BME280;22580;57.670;12.006;2023-04-28T00:18:31;101360.41;;;15.15;60.93
13013;BME280;22580;57.670;12.006;2023-04-28T00:20:58;101360.66;;;15.12;61.12
13013;BME280;22580;57.670;12.006;2023-04-28T00:23:25;101369.81;;;15.09;60.78
13013;BME280;22580;57.670;12.006;2023-04-28T00:25:53;101361.25;;;14.82;61.63
13013;BME280;22580;57.670;12.006;2023-04-28T00:28:22;101359.66;;;15.01;61.56
13013;BME280;22580;57.670;12.006;2023-04-28T00:30:48;101358.44;;;14.94;61.42
13013;BME280;22580;57.670;12.006;2023-04-28T00:33:16;101369.59;;;15.01;61.54
13013;BME280;22580;57.670;12.006;2023-04-28T00:35:43;101360.63;;;14.78;62.11
13013;BME280;22580;57.670;12.006;2023-04-28T00:38:09;101364.19;;;14.79;62.31
13013;BME280;22580;57.670;12.006;2023-04-28T00:40:37;101370.31;;;14.92;62.51
13013;BME280;22580;57.670;12.006;2023-04-28T00:43:05;101363.81;;;14.94;61.95
13013;BME280;22580;57.670;12.006;2023-04-28T00:45:33;101363.59;;;14.64;62.52
13013;BME280;22580;57.670;12.006;2023-04-28T00:48:01;101362.59;;;14.87;62.28
13013;BME280;22580;57.670;12.006;2023-04-28T00:50:28;101351.34;;;14.60;62.07
13013;BME280;22580;57.670;12.006;2023-04-28T00:52:55;101329.56;;;14.52;62.28
13013;BME280;22580;57.670;12.006;2023-04-28T00:55:23;101377.88;;;14.75;62.57
13013;BME280;22580;57.670;12.006;2023-04-28T00:57:54;101348.75;;;14.47;62.92
13013;BME280;22580;57.670;12.006;2023-04-28T01:00:22;101336.28;;;14.46;62.94
13013;BME280;22580;57.670;12.006;2023-04-28T01:02:51;101382.78;;;14.70;62.58
13013;BME280;22580;57.670;12.006;2023-04-28T01:05:19;101378.28;;;14.71;62.48
13013;BME280;22580;57.670;12.006;2023-04-28T01:07:46;101384.13;;;14.87;61.55
13013;BME280;22580;57.670;12.006;2023-04-28T01:10:13;101382.91;;;14.58;62.80
13013;BME280;22580;57.670;12.006;2023-04-28T01:12:40;101384.09;;;14.54;61.99
13013;BME280;22580;57.670;12.006;2023-04-28T01:15:12;101379.94;;;14.50;62.69
13013;BME280;22580;57.670;12.006;2023-04-28T01:17:41;101387.44;;;14.33;63.14
13013;BME280;22580;57.670;12.006;2023-04-28T01:20:11;101382.91;;;14.58;63.16
13013;BME280;22580;57.670;12.006;2023-04-28T01:22:38;101390.75;;;14.72;62.66
13013;BME280;22580;57.670;12.006;2023-04-28T01:25:07;101372.63;;;14.74;62.03
13013;BME280;22580;57.670;12.006;2023-04-28T01:27:34;101378.75;;;14.76;61.81
13013;BME280;22580;57.670;12.006;2023-04-28T01:30:01;101387.19;;;14.83;61.56
13013;BME280;22580;57.670;12.006;2023-04-28T01:32:28;101379.88;;;15.07;60.62
13013;BME280;22580;57.670;12.006;2023-04-28T01:34:55;101394.16;;;14.74;61.32
13013;BME280;22580;57.670;12.006;2023-04-28T01:37:22;101382.06;;;14.68;61.63
13013;BME280;22580;57.670;12.006;2023-04-28T01:39:48;101388.16;;;14.82;60.53
13013;BME280;22580;57.670;12.006;2023-04-28T01:42:17;101358.31;;;14.73;60.05
13013;BME280;22580;57.670;12.006;2023-04-28T01:44:44;101395.66;;;15.00;59.23
13013;BME280;22580;57.670;12.006;2023-04-28T01:47:10;101382.41;;;14.75;60.17
13013;BME280;22580;57.670;12.006;2023-04-28T01:49:37;101373.59;;;14.84;59.54
13013;BME280;22580;57.670;12.006;2023-04-28T01:52:04;101386.97;;;14.97;59.68
13013;BME280;22580;57.670;12.006;2023-04-28T01:54:31;101372.25;;;14.79;60.09
13013;BME280;22580;57.670;12.006;2023-04-28T01:56:58;101379.13;;;14.94;59.29
13013;BME280;22580;57.670;12.006;2023-04-28T01:59:28;101390.88;;;14.93;58.90
13013;BME280;22580;57.670;12.006;2023-04-28T02:01:55;101348.06;;;14.67;58.84
13013;BME280;22580;57.670;12.006;2023-04-28T02:04:22;101396.00;;;14.96;58.61
13013;BME280;22580;57.670;12.006;2023-04-28T02:06:49;101388.91;;;14.61;59.94
13013;BME280;22580;57.670;12.006;2023-04-28T02:09:16;101390.69;;;14.50;61.09
13013;BME280;22580;57.670;12.006;2023-04-28T02:11:42;101392.06;;;14.31;62.01
13013;BME280;22580;57.670;12.006;2023-04-28T02:14:09;101391.72;;;14.71;60.71
13013;BME280;22580;57.670;12.006;2023-04-28T02:16:38;101394.91;;;14.65;60.69
13013;BME280;22580;57.670;12.006;2023-04-28T02:19:05;101401.97;;;14.55;60.98
13013;BME280;22580;57.670;12.006;2023-04-28T02:21:32;101389.75;;;14.62;60.08
13013;BME280;22580;57.670;12.006;2023-04-28T02:23:59;101395.41;;;14.70;59.91
13013;BME280;22580;57.670;12.006;2023-04-28T02:26:25;101394.66;;;14.68;59.91
13013;BME280;22580;57.670;12.006;2023-04-28T02:28:52;101391.72;;;14.71;59.65
13013;BME280;22580;57.670;12.006;2023-04-28T02:31:19;101395.00;;;14.74;59.23
13013;BME280;22580;57.670;12.006;2023-04-28T02:33:48;101389.88;;;14.71;59.03
13013;BME280;22580;57.670;12.006;2023-04-28T02:36:15;101398.09;;;14.70;59.19
13013;BME280;22580;57.670;12.006;2023-04-28T02:38:42;101388.53;;;14.77;58.74
13013;BME280;22580;57.670;12.006;2023-04-28T02:41:09;101401.50;;;14.61;58.81
13013;BME280;22580;57.670;12.006;2023-04-28T02:43:36;101403.97;;;11.91;70.18
13013;BME280;22580;57.670;12.006;2023-04-28T02:46:04;101398.28;;;12.35;71.57
13013;BME280;22580;57.670;12.006;2023-04-28T02:48:31;101395.31;;;13.28;67.08
13013;BME280;22580;57.670;12.006;2023-04-28T02:51:01;101396.72;;;12.58;68.99
13013;BME280;22580;57.670;12.006;2023-04-28T02:53:28;101398.44;;;12.46;70.71
13013;BME280;22580;57.670;12.006;2023-04-28T02:55:55;101358.28;;;12.19;70.76
13013;BME280;22580;57.670;12.006;2023-04-28T02:58:22;101384.94;;;12.86;68.80
13013;BME280;22580;57.670;12.006;2023-04-28T03:00:49;101377.56;;;14.10;64.28
13013;BME280;22580;57.670;12.006;2023-04-28T03:03:16;101367.66;;;13.52;65.16
13013;BME280;22580;57.670;12.006;2023-04-28T03:05:43;101372.34;;;13.61;64.33
13013;BME280;22580;57.670;12.006;2023-04-28T03:08:11;101393.53;;;13.53;65.76
13013;BME280;22580;57.670;12.006;2023-04-28T03:10:38;101380.47;;;13.35;66.10
13013;BME280;22580;57.670;12.006;2023-04-28T03:13:05;101407.13;;;12.62;69.36
13013;BME280;22580;57.670;12.006;2023-04-28T03:15:32;101402.63;;;13.87;65.28
13013;BME280;22580;57.670;12.006;2023-04-28T03:18:00;101399.44;;;13.82;65.60
13013;BME280;22580;57.670;12.006;2023-04-28T03:20:26;101406.16;;;12.51;70.86
13013;BME280;22580;57.670;12.006;2023-04-28T03:22:54;101406.22;;;11.70;73.54
13013;BME280;22580;57.670;12.006;2023-04-28T03:25:22;101400.06;;;13.61;66.80
13013;BME280;22580;57.670;12.006;2023-04-28T03:27:49;101396.75;;;14.05;64.15
13013;BME280;22580;57.670;12.006;2023-04-28T03:30:16;101394.44;;;14.12;63.08
13013;BME280;22580;57.670;12.006;2023-04-28T03:32:43;101399.25;;;14.20;62.96
13013;BME280;22580;57.670;12.006;2023-04-28T03:35:10;101396.44;;;14.21;62.30
13013;BME280;22580;57.670;12.006;2023-04-28T03:37:37;101377.00;;;13.94;62.35
13013;BME280;22580;57.670;12.006;2023-04-28T03:40:05;101376.59;;;14.11;61.82
13013;BME280;22580;57.670;12.006;2023-04-28T03:42:34;101403.81;;;14.30;61.50
13013;BME280;22580;57.670;12.006;2023-04-28T03:45:00;101409.03;;;14.45;60.60
13013;BME280;22580;57.670;12.006;2023-04-28T03:47:27;101408.72;;;14.36;60.90
13013;BME280;22580;57.670;12.006;2023-04-28T03:49:54;101411.13;;;14.52;60.73
13013;BME280;22580;57.670;12.006;2023-04-28T03:52:23;101404.38;;;14.47;60.62
13013;BME280;22580;57.670;12.006;2023-04-28T03:54:50;101403.09;;;14.04;61.89
13013;BME280;22580;57.670;12.006;2023-04-28T03:57:17;101412.84;;;14.29;61.98
13013;BME280;22580;57.670;12.006;2023-04-28T03:59:47;101412.50;;;14.34;63.32
13013;BME280;22580;57.670;12.006;2023-04-28T04:02:14;101406.38;;;14.78;62.92
13013;BME280;22580;57.670;12.006;2023-04-28T04:04:41;101419.50;;;14.83;62.79
13013;BME280;22580;57.670;12.006;2023-04-28T04:07:08;101412.78;;;15.11;62.15
13013;BME280;22580;57.670;12.006;2023-04-28T04:09:36;101414.88;;;15.18;61.47
13013;BME280;22580;57.670;12.006;2023-04-28T04:12:03;101413.16;;;15.17;59.40
13013;BME280;22580;57.670;12.006;2023-04-28T04:14:31;101398.34;;;14.89;58.68
13013;BME280;22580;57.670;12.006;2023-04-28T04:17:00;101407.97;;;14.81;59.46
13013;BME280;22580;57.670;12.006;2023-04-28T04:19:27;101376.41;;;14.60;60.21
13013;BME280;22580;57.670;12.006;2023-04-28T04:21:54;101416.13;;;14.46;62.59
13013;BME280;22580;57.670;12.006;2023-04-28T04:24:21;101407.94;;;14.47;62.12
13013;BME280;22580;57.670;12.006;2023-04-28T04:26:48;101400.16;;;14.31;62.63
13013;BME280;22580;57.670;12.006;2023-04-28T04:29:14;101422.31;;;14.11;65.48
13013;BME280;22580;57.670;12.006;2023-04-28T04:31:41;101417.78;;;14.82;62.35
13013;BME280;22580;57.670;12.006;2023-04-28T04:34:11;101414.72;;;14.86;62.04
13013;BME280;22580;57.670;12.006;2023-04-28T04:36:39;101398.69;;;14.85;62.37
13013;BME280;22580;57.670;12.006;2023-04-28T04:39:05;101427.97;;;15.23;60.69
13013;BME280;22580;57.670;12.006;2023-04-28T04:41:32;101411.16;;;14.04;63.66
13013;BME280;22580;57.670;12.006;2023-04-28T04:44:00;101433.84;;;13.40;67.94
13013;BME280;22580;57.670;12.006;2023-04-28T04:46:26;101424.25;;;13.61;67.35
13013;BME280;22580;57.670;12.006;2023-04-28T04:48:53;101433.59;;;15.08;62.39
13013;BME280;22580;57.670;12.006;2023-04-28T04:51:22;101422.47;;;15.24;61.18
13013;BME280;22580;57.670;12.006;2023-04-28T04:53:49;101427.34;;;15.64;59.12
13013;BME280;22580;57.670;12.006;2023-04-28T04:56:16;101435.03;;;15.80;59.31
13013;BME280;22580;57.670;12.006;2023-04-28T04:58:43;101432.78;;;15.96;58.10
13013;BME280;22580;57.670;12.006;2023-04-28T05:01:10;101411.69;;;16.01;58.67
13013;BME280;22580;57.670;12.006;2023-04-28T05:03:37;101433.09;;;16.46;56.58
13013;BME280;22580;57.670;12.006;2023-04-28T05:06:05;101431.44;;;16.33;56.64
13013;BME280;22580;57.670;12.006;2023-04-28T05:08:33;101419.91;;;16.31;56.64
13013;BME280;22580;57.670;12.006;2023-04-28T05:11:00;101436.19;;;16.62;56.78
13013;BME280;22580;57.670;12.006;2023-04-28T05:13:27;101430.97;;;16.49;56.20
13013;BME280;22580;57.670;12.006;2023-04-28T05:15:54;101436.31;;;15.31;60.41
13013;BME280;22580;57.670;12.006;2023-04-28T05:18:21;101443.03;;;15.36;61.97
13013;BME280;22580;57.670;12.006;2023-04-28T05:20:48;101424.66;;;15.30;62.92
13013;BME280;22580;57.670;12.006;2023-04-28T05:23:15;101437.88;;;15.67;62.10
13013;BME280;22580;57.670;12.006;2023-04-28T05:25:44;101442.09;;;16.03;61.45
13013;BME280;22580;57.670;12.006;2023-04-28T05:28:10;101432.81;;;16.28;61.13
13013;BME280;22580;57.670;12.006;2023-04-28T05:30:37;101423.66;;;16.19;61.78
13013;BME280;22580;57.670;12.006;2023-04-28T05:33:04;101435.63;;;16.26;61.58
13013;BME280;22580;57.670;12.006;2023-04-28T05:35:31;101408.75;;;16.04;62.50
13013;BME280;22580;57.670;12.006;2023-04-28T05:37:58;101438.13;;;16.71;63.31
13013;BME280;22580;57.670;12.006;2023-04-28T05:40:25;101437.50;;;17.09;61.25
13013;BME280;22580;57.670;12.006;2023-04-28T05:42:54;101425.56;;;17.52;60.38
13013;BME280;22580;57.670;12.006;2023-04-28T05:45:21;101420.78;;;17.65;57.28
13013;BME280;22580;57.670;12.006;2023-04-28T05:47:48;101430.72;;;18.05;57.27
13013;BME280;22580;57.670;12.006;2023-04-28T05:50:15;101431.16;;;18.10;55.67
13013;BME280;22580;57.670;12.006;2023-04-28T05:52:42;101428.84;;;18.24;55.32
13013;BME280;22580;57.670;12.006;2023-04-28T05:55:09;101428.03;;;18.14;54.82
13013;BME280;22580;57.670;12.006;2023-04-28T05:57:36;101430.72;;;17.95;54.37
13013;BME280;22580;57.670;12.006;2023-04-28T06:00:06;101434.97;;;17.88;54.74
13013;BME280;22580;57.670;12.006;2023-04-28T06:02:33;101433.44;;;18.14;54.16
13013;BME280;22580;57.670;12.006;2023-04-28T06:05:00;101433.66;;;17.82;56.73
13013;BME280;22580;57.670;12.006;2023-04-28T06:07:27;101425.16;;;17.96;55.39
13013;BME280;22580;57.670;12.006;2023-04-28T06:09:54;101420.88;;;17.54;55.98
13013;BME280;22580;57.670;12.006;2023-04-28T06:12:20;101438.06;;;17.74;56.33
13013;BME280;22580;57.670;12.006;2023-04-28T06:14:47;101425.16;;;17.56;56.45
13013;BME280;22580;57.670;12.006;2023-04-28T06:17:18;101437.97;;;17.54;57.04
13013;BME280;22580;57.670;12.006;2023-04-28T06:19:45;101435.91;;;17.67;56.97
13013;BME280;22580;57.670;12.006;2023-04-28T06:22:12;101441.31;;;17.67;57.19
13013;BME280;22580;57.670;12.006;2023-04-28T06:24:39;101429.72;;;18.25;55.73
13013;BME280;22580;57.670;12.006;2023-04-28T06:27:07;101429.13;;;18.21;54.61
13013;BME280;22580;57.670;12.006;2023-04-28T06:29:34;101434.34;;;17.34;56.69
13013;BME280;22580;57.670;12.006;2023-04-28T06:32:01;101437.47;;;17.40;57.35
13013;BME280;22580;57.670;12.006;2023-04-28T06:34:29;101440.09;;;17.51;57.06
13013;BME280;22580;57.670;12.006;2023-04-28T06:36:57;101435.25;;;17.94;55.07
13013;BME280;22580;57.670;12.006;2023-04-28T06:39:24;101427.44;;;17.91;53.84
13013;BME280;22580;57.670;12.006;2023-04-28T06:41:51;101444.91;;;17.47;51.93
13013;BME280;22580;57.670;12.006;2023-04-28T06:44:18;101432.28;;;18.26;56.24
13013;BME280;22580;57.670;12.006;2023-04-28T06:46:45;101422.00;;;18.59;53.66
13013;BME280;22580;57.670;12.006;2023-04-28T06:49:12;101432.09;;;19.32;55.33
13013;BME280;22580;57.670;12.006;2023-04-28T06:51:40;101420.75;;;19.47;49.58
13013;BME280;22580;57.670;12.006;2023-04-28T06:54:07;101427.03;;;19.10;45.17
13013;BME280;22580;57.670;12.006;2023-04-28T06:56:34;101428.72;;;18.07;45.56
13013;BME280;22580;57.670;12.006;2023-04-28T06:59:01;101430.59;;;18.06;45.14
13013;BME280;22580;57.670;12.006;2023-04-28T07:01:28;101419.59;;;17.88;44.95
13013;BME280;22580;57.670;12.006;2023-04-28T07:03:55;101432.13;;;18.38;43.64
13013;BME280;22580;57.670;12.006;2023-04-28T07:06:22;101415.47;;;18.71;42.81
13013;BME280;22580;57.670;12.006;2023-04-28T07:08:53;101431.41;;;18.84;42.60
13013;BME280;22580;57.670;12.006;2023-04-28T07:11:20;101424.72;;;18.78;42.31
13013;BME280;22580;57.670;12.006;2023-04-28T07:13:47;101435.69;;;17.99;43.64
13013;BME280;22580;57.670;12.006;2023-04-28T07:16:16;101423.44;;;17.95;41.84
13013;BME280;22580;57.670;12.006;2023-04-28T07:18:43;101413.47;;;18.34;40.67
13013;BME280;22580;57.670;12.006;2023-04-28T07:21:10;101430.22;;;19.06;40.10
13013;BME280;22580;57.670;12.006;2023-04-28T07:23:37;101427.56;;;18.77;39.20
13013;BME280;22580;57.670;12.006;2023-04-28T07:26:06;101417.75;;;18.76;40.49
13013;BME280;22580;57.670;12.006;2023-04-28T07:28:34;101425.75;;;19.14;39.79
13013;BME280;22580;57.670;12.006;2023-04-28T07:31:00;101428.22;;;19.35;37.59
13013;BME280;22580;57.670;12.006;2023-04-28T07:33:28;101425.84;;;19.22;35.90
13013;BME280;22580;57.670;12.006;2023-04-28T07:35:54;101424.88;;;18.77;33.30
13013;BME280;22580;57.670;12.006;2023-04-28T07:38:21;101427.88;;;19.11;33.65
13013;BME280;22580;57.670;12.006;2023-04-28T07:40:48;101428.03;;;19.46;31.93
13013;BME280;22580;57.670;12.006;2023-04-28T07:43:17;101430.19;;;19.80;29.46
13013;BME280;22580;57.670;12.006;2023-04-28T07:45:44;101425.72;;;19.88;26.41
13013;BME280;22580;57.670;12.006;2023-04-28T07:48:13;101426.41;;;20.08;28.08
13013;BME280;22580;57.670;12.006;2023-04-28T07:50:40;101417.63;;;20.14;28.30
13013;BME280;22580;57.670;12.006;2023-04-28T07:53:07;101418.00;;;19.66;33.12
13013;BME280;22580;57.670;12.006;2023-04-28T07:55:34;101436.69;;;18.85;37.11
13013;BME280;22580;57.670;12.006;2023-04-28T07:58:01;101430.09;;;19.72;38.07
13013;BME280;22580;57.670;12.006;2023-04-28T08:00:31;101439.13;;;18.69;34.72
13013;BME280;22580;57.670;12.006;2023-04-28T08:02:58;101439.66;;;19.02;35.37
13013;BME280;22580;57.670;12.006;2023-04-28T08:05:25;101445.78;;;18.94;32.23
13013;BME280;22580;57.670;12.006;2023-04-28T08:07:52;101453.09;;;18.84;31.89
13013;BME280;22580;57.670;12.006;2023-04-28T08:10:19;101449.81;;;18.42;31.30
13013;BME280;22580;57.670;12.006;2023-04-28T08:12:46;101448.81;;;18.81;31.52
13013;BME280;22580;57.670;12.006;2023-04-28T08:15:13;101453.84;;;19.13;31.61
13013;BME280;22580;57.670;12.006;2023-04-28T08:17:41;101450.53;;;18.82;30.67
13013;BME280;22580;57.670;12.006;2023-04-28T08:20:08;101455.50;;;18.96;31.31
13013;BME280;22580;57.670;12.006;2023-04-28T08:22:35;101457.50;;;18.94;31.69
13013;BME280;22580;57.670;12.006;2023-04-28T08:25:03;101429.44;;;18.57;31.11
13013;BME280;22580;57.670;12.006;2023-04-28T08:27:30;101440.66;;;19.01;30.56
13013;BME280;22580;57.670;12.006;2023-04-28T08:30:01;101445.91;;;19.39;29.65
13013;BME280;22580;57.670;12.006;2023-04-28T08:32:28;101442.66;;;18.98;29.32
13013;BME280;22580;57.670;12.006;2023-04-28T08:34:57;101451.69;;;18.60;30.25
13013;BME280;22580;57.670;12.006;2023-04-28T08:37:25;101441.41;;;18.83;30.83
13013;BME280;22580;57.670;12.006;2023-04-28T08:39:52;101442.97;;;18.76;30.12
13013;BME280;22580;57.670;12.006;2023-04-28T08:42:28;101436.28;;;18.32;31.33
13013;BME280;22580;57.670;12.006;2023-04-28T08:44:55;101448.66;;;18.92;33.21
13013;BME280;22580;57.670;12.006;2023-04-28T08:47:32;101442.22;;;19.03;29.83
13013;BME280;22580;57.670;12.006;2023-04-28T08:50:03;101448.09;;;18.79;34.59
13013;BME280;22580;57.670;12.006;2023-04-28T08:52:32;101448.63;;;19.39;33.05
13013;BME280;22580;57.670;12.006;2023-04-28T08:55:05;101447.47;;;19.96;33.53
13013;BME280;22580;57.670;12.006;2023-04-28T08:57:36;101447.94;;;19.74;30.48
13013;BME280;22580;57.670;12.006;2023-04-28T09:00:05;101455.66;;;18.66;28.39
13013;BME280;22580;57.670;12.006;2023-04-28T09:02:32;101447.38;;;18.48;30.27
13013;BME280;22580;57.670;12.006;2023-04-28T09:04:59;101447.09;;;18.80;29.57
13013;BME280;22580;57.670;12.006;2023-04-28T09:07:27;101453.84;;;19.13;29.45
13013;BME280;22580;57.670;12.006;2023-04-28T09:10:15;101435.50;;;19.35;29.06
13013;BME280;22580;57.670;12.006;2023-04-28T09:12:42;101448.47;;;19.41;29.59
13013;BME280;22580;57.670;12.006;2023-04-28T09:15:09;101447.69;;;19.68;29.69
13013;BME280;22580;57.670;12.006;2023-04-28T09:17:46;101440.69;;;19.92;29.59
13013;BME280;22580;57.670;12.006;2023-04-28T09:20:20;101438.97;;;19.91;29.19
13013;BME280;22580;57.670;12.006;2023-04-28T09:22:51;101448.56;;;20.04;29.60
13013;BME280;22580;57.670;12.006;2023-04-28T09:25:19;101436.88;;;20.03;29.70
13013;BME280;22580;57.670;12.006;2023-04-28T09:27:47;101452.00;;;19.88;30.17
13013;BME280;22580;57.670;12.006;2023-04-28T09:30:14;101443.59;;;19.81;28.87
13013;BME280;22580;57.670;12.006;2023-04-28T09:32:42;101446.09;;;20.10;28.71
13013;BME280;22580;57.670;12.006;2023-04-28T09:35:09;101449.63;;;19.38;26.97
13013;BME280;22580;57.670;12.006;2023-04-28T09:37:36;101444.78;;;19.05;28.31
13013;BME280;22580;57.670;12.006;2023-04-28T09:40:07;101448.19;;;19.81;26.67
13013;BME280;22580;57.670;12.006;2023-04-28T09:42:36;101445.63;;;20.15;27.09
13013;BME280;22580;57.670;12.006;2023-04-28T09:45:04;101426.19;;;19.56;28.54
13013;BME280;22580;57.670;12.006;2023-04-28T09:47:33;101434.66;;;19.34;26.91
13013;BME280;22580;57.670;12.006;2023-04-28T09:50:03;101440.69;;;19.65;25.99
13013;BME280;22580;57.670;12.006;2023-04-28T09:52:33;101435.88;;;19.59;25.89
13013;BME280;22580;57.670;12.006;2023-04-28T09:55:01;101401.47;;;19.59;28.58
13013;BME280;22580;57.670;12.006;2023-04-28T09:57:32;101435.75;;;19.96;27.18
13013;BME280;22580;57.670;12.006;2023-04-28T10:00:00;101419.81;;;20.11;26.22
13013;BME280;22580;57.670;12.006;2023-04-28T10:02:30;101444.41;;;18.80;27.31
13013;BME280;22580;57.670;12.006;2023-04-28T10:04:58;101450.19;;;19.05;29.80
13013;BME280;22580;57.670;12.006;2023-04-28T10:07:25;101439.19;;;19.53;31.45
13013;BME280;22580;57.670;12.006;2023-04-28T10:09:55;101439.06;;;20.35;33.72
13013;BME280;22580;57.670;12.006;2023-04-28T10:12:23;101436.66;;;20.50;28.89
13013;BME280;22580;57.670;12.006;2023-04-28T10:14:51;101433.38;;;20.28;26.46
13013;BME280;22580;57.670;12.006;2023-04-28T10:17:20;101435.94;;;20.30;26.34
13013;BME280;22580;57.670;12.006;2023-04-28T10:19:51;101437.50;;;20.68;23.32
13013;BME280;22580;57.670;12.006;2023-04-28T10:22:42;101429.19;;;20.95;24.78
13013;BME280;22580;57.670;12.006;2023-04-28T10:25:24;101436.50;;;20.95;24.50
13013;BME280;22580;57.670;12.006;2023-04-28T10:27:52;101427.81;;;20.91;25.94
13013;BME280;22580;57.670;12.006;2023-04-28T10:30:23;101432.50;;;21.33;27.65
13013;BME280;22580;57.670;12.006;2023-04-28T10:33:23;101428.81;;;21.42;25.29
13013;BME280;22580;57.670;12.006;2023-04-28T10:35:51;101433.00;;;21.63;26.91
13013;BME280;22580;57.670;12.006;2023-04-28T10:38:19;101432.13;;;21.62;27.37
13013;BME280;22580;57.670;12.006;2023-04-28T10:40:47;101429.09;;;21.73;27.16
13013;BME280;22580;57.670;12.006;2023-04-28T10:43:33;101396.13;;;21.34;27.84
13013;BME280;22580;57.670;12.006;2023-04-28T10:46:04;101437.59;;;21.78;27.52
13013;BME280;22580;57.670;12.006;2023-04-28T10:48:54;101432.22;;;21.44;28.51
13013;BME280;22580;57.670;12.006;2023-04-28T10:51:31;101439.59;;;21.26;29.01
13013;BME280;22580;57.670;12.006;2023-04-28T10:54:15;101444.56;;;21.73;29.33
13013;BME280;22580;57.670;12.006;2023-04-28T10:57:15;101443.00;;;22.12;28.29
13013;BME280;22580;57.670;12.006;2023-04-28T10:59:46;101425.19;;;21.08;29.71
13013;BME280;22580;57.670;12.006;2023-04-28T11:02:36;101442.16;;;21.62;29.47
13013;BME280;22580;57.670;12.006;2023-04-28T11:05:16;101426.22;;;21.83;28.87
13013;BME280;22580;57.670;12.006;2023-04-28T11:11:12;101446.06;;;21.67;30.19
13013;BME280;22580;57.670;12.006;2023-04-28T11:13:40;101436.31;;;21.48;30.86
13013;BME280;22580;57.670;12.006;2023-04-28T11:16:07;101437.81;;;21.93;30.11
13013;BME280;22580;57.670;12.006;2023-04-28T11:18:48;101428.53;;;22.12;29.93
13013;BME280;22580;57.670;12.006;2023-04-28T11:21:16;101447.38;;;21.97;29.99
13013;BME280;22580;57.670;12.006;2023-04-28T11:23:44;101459.09;;;21.47;30.77
13013;BME280;22580;57.670;12.006;2023-04-28T11:26:11;101429.34;;;21.46;30.69
13013;BME280;22580;57.670;12.006;2023-04-28T11:28:46;101448.63;;;21.61;30.14
13013;BME280;22580;57.670;12.006;2023-04-28T11:31:14;101445.66;;;21.20;29.51
13013;BME280;22580;57.670;12.006;2023-04-28T11:33:46;101450.00;;;21.31;31.16
13013;BME280;22580;57.670;12.006;2023-04-28T11:36:30;101445.56;;;21.04;32.75
13013;BME280;22580;57.670;12.006;2023-04-28T11:39:00;101450.09;;;21.21;32.90
13013;BME280;22580;57.670;12.006;2023-04-28T11:41:27;101460.50;;;20.56;34.30
13013;BME280;22580;57.670;12.006;2023-04-28T11:43:55;101459.16;;;20.78;33.78
13013;BME280;22580;57.670;12.006;2023-04-28T11:46:23;101460.06;;;20.33;34.56
13013;BME280;22580;57.670;12.006;2023-04-28T11:49:01;101456.13;;;20.27;35.53
13013;BME280;22580;57.670;12.006;2023-04-28T11:51:30;101456.44;;;20.24;35.49
13013;BME280;22580;57.670;12.006;2023-04-28T11:53:58;101461.66;;;20.71;34.77
13013;BME280;22580;57.670;12.006;2023-04-28T11:56:25;101452.88;;;20.77;34.67
13013;BME280;22580;57.670;12.006;2023-04-28T11:58:59;101461.00;;;20.24;34.62
13013;BME280;22580;57.670;12.006;2023-04-28T12:01:28;101466.06;;;20.37;34.63
13013;BME280;22580;57.670;12.006;2023-04-28T12:03:56;101463.47;;;19.35;35.94
13013;BME280;22580;57.670;12.006;2023-04-28T12:06:24;101472.41;;;20.27;34.40
13013;BME280;22580;57.670;12.006;2023-04-28T12:08:52;101441.28;;;20.22;34.83
13013;BME280;22580;57.670;12.006;2023-04-28T12:11:19;101461.59;;;20.89;33.52
13013;BME280;22580;57.670;12.006;2023-04-28T12:14:06;101458.94;;;19.73;34.95
13013;BME280;22580;57.670;12.006;2023-04-28T12:16:40;101452.19;;;20.40;34.04
13013;BME280;22580;57.670;12.006;2023-04-28T12:19:10;101439.97;;;21.05;33.71
13013;BME280;22580;57.670;12.006;2023-04-28T12:21:39;101444.66;;;21.21;33.02
13013;BME280;22580;57.670;12.006;2023-04-28T12:24:16;101435.34;;;20.54;33.65
13013;BME280;22580;57.670;12.006;2023-04-28T12:26:43;101430.84;;;20.45;31.93
13013;BME280;22580;57.670;12.006;2023-04-28T12:29:34;101449.63;;;20.82;32.75
13013;BME280;22580;57.670;12.006;2023-04-28T12:32:02;101442.19;;;21.10;31.36
13013;BME280;22580;57.670;12.006;2023-04-28T12:34:29;101446.38;;;19.25;33.58
13013;BME280;22580;57.670;12.006;2023-04-28T12:36:59;101441.75;;;20.00;32.66
13013;BME280;22580;57.670;12.006;2023-04-28T12:39:27;101431.56;;;20.47;29.19
13013;BME280;22580;57.670;12.006;2023-04-28T12:41:54;101436.81;;;20.92;29.93
13013;BME280;22580;57.670;12.006;2023-04-28T12:44:23;101438.34;;;21.20;30.46
13013;BME280;22580;57.670;12.006;2023-04-28T12:46:52;101440.78;;;20.54;31.92
13013;BME280;22580;57.670;12.006;2023-04-28T12:49:20;101427.56;;;18.57;35.22
13013;BME280;22580;57.670;12.006;2023-04-28T12:51:48;101421.75;;;20.18;32.06